Time;durP1;ratioP1;P1;durP2;ratioP2;P2;SDS_P1;SDS_P2;PMS_P1;PMS_P2;Temp;Humidity;BMP_temperature;BMP_pressure;BME280_temperature;BME280_humidity;BME280_pressure;Samples;Min_cycle;Max_cycle;Signal;HPM_P1;HPM_P2
2023/06/21 00:00:30;;;;;;;1999.90;999.90;;;19.60;99.90;;;;;;5016891;28;20147;-78
2023/06/21 00:02:57;;;;;;;1999.90;999.90;;;19.60;99.90;;;;;;5016608;28;20535;-78
2023/06/21 00:05:22;;;;;;;1999.90;999.90;;;19.50;99.90;;;;;;5016795;28;20050;-77
2023/06/21 00:07:49;;;;;;;1999.90;999.90;;;19.50;99.90;;;;;;5015417;28;20629;-78
2023/06/21 00:10:15;;;;;;;1999.90;999.90;;;19.50;99.90;;;;;;5015214;28;20042;-77
2023/06/21 00:12:40;;;;;;;1999.90;999.90;;;19.50;99.90;;;;;;5016418;28;20034;-78
2023/06/21 00:15:06;;;;;;;1999.90;999.90;;;19.50;99.90;;;;;;5016633;28;20059;-78
2023/06/21 00:17:32;;;;;;;1999.90;999.90;;;19.40;99.90;;;;;;5016332;28;20748;-78
2023/06/21 00:19:57;;;;;;;1999.90;999.90;;;19.40;99.90;;;;;;5016439;28;20058;-78
2023/06/21 00:22:23;;;;;;;1999.90;999.90;;;19.40;99.90;;;;;;5016550;28;20034;-77
2023/06/21 00:24:49;;;;;;;1999.90;999.90;;;19.40;99.90;;;;;;5016501;28;20046;-77
2023/06/21 00:27:16;;;;;;;1999.90;999.90;;;19.30;99.90;;;;;;5016214;28;20467;-78
2023/06/21 00:29:42;;;;;;;1999.90;999.90;;;19.30;99.90;;;;;;5016345;28;20052;-78
2023/06/21 00:32:07;;;;;;;1999.90;999.90;;;19.30;99.90;;;;;;5016166;28;20395;-77
2023/06/21 00:34:34;;;;;;;1999.90;999.90;;;19.30;99.90;;;;;;5016392;28;20049;-78
2023/06/21 00:37:02;;;;;;;1999.90;999.90;;;19.20;99.90;;;;;;5016132;28;20121;-78
2023/06/21 00:39:28;;;;;;;1999.90;999.90;;;19.20;99.90;;;;;;5016103;28;20030;-78
2023/06/21 00:41:54;;;;;;;1999.90;999.90;;;19.30;99.90;;;;;;5015942;28;20444;-77
2023/06/21 00:44:19;;;;;;;1999.90;999.90;;;19.20;99.90;;;;;;5016197;28;20377;-77
2023/06/21 00:46:45;;;;;;;1999.90;999.90;;;19.20;99.90;;;;;;5015877;28;20045;-78
2023/06/21 00:49:10;;;;;;;1999.90;999.90;;;19.20;99.90;;;;;;5016012;28;20042;-78
2023/06/21 00:51:38;;;;;;;1999.90;999.90;;;19.20;99.90;;;;;;5014351;28;20552;-77
2023/06/21 00:54:15;;;;;;;1999.90;999.90;;;19.10;99.90;;;;;;5015996;28;20034;-78
2023/06/21 00:56:42;;;;;;;1999.90;999.90;;;19.10;99.90;;;;;;5016157;28;20076;-77
2023/06/21 00:59:08;;;;;;;1999.90;999.90;;;19.10;99.90;;;;;;5015730;28;20038;-77
2023/06/21 01:01:35;;;;;;;1999.90;999.90;;;19.10;99.90;;;;;;5015709;28;20088;-78
2023/06/21 01:04:01;;;;;;;1999.90;999.90;;;19.10;99.90;;;;;;5015876;28;20030;-77
2023/06/21 01:07:05;;;;;;;1999.90;999.90;;;19.10;99.90;;;;;;5014844;28;20455;-78
2023/06/21 01:09:43;;;;;;;1999.90;999.90;;;19.10;99.90;;;;;;5015893;28;20041;-77
2023/06/21 01:12:23;;;;;;;1999.90;999.90;;;19.10;99.90;;;;;;5015294;28;20134;-77
2023/06/21 01:15:10;;;;;;;1999.90;999.90;;;19.00;99.90;;;;;;5015870;28;20092;-77
2023/06/21 01:17:40;;;;;;;1999.90;999.90;;;19.00;99.90;;;;;;5015572;28;20018;-78
2023/06/21 01:20:15;;;;;;;1999.90;999.90;;;18.90;99.90;;;;;;5014130;28;20214;-77
2023/06/21 01:23:10;;;;;;;1999.90;999.90;;;18.90;99.90;;;;;;5015547;28;20031;-77
2023/06/21 01:25:45;;;;;;;1999.90;999.90;;;18.80;99.90;;;;;;5015559;28;20041;-78
2023/06/21 01:28:36;;;;;;;1999.90;999.90;;;18.80;99.90;;;;;;5015471;28;20110;-78
2023/06/21 01:31:03;;;;;;;1999.90;999.90;;;18.80;99.90;;;;;;5015349;28;20069;-78
2023/06/21 01:33:31;;;;;;;1999.90;999.90;;;18.70;99.90;;;;;;5015487;28;20040;-77
2023/06/21 01:35:57;;;;;;;1999.90;999.90;;;18.80;99.90;;;;;;5015156;28;20774;-78
2023/06/21 01:38:23;;;;;;;1999.90;999.90;;;18.80;99.90;;;;;;5015433;28;20045;-77
2023/06/21 01:40:50;;;;;;;1999.90;999.90;;;18.80;99.90;;;;;;5015228;28;20464;-78
2023/06/21 01:43:17;;;;;;;1999.90;999.90;;;18.80;99.90;;;;;;5015212;28;20453;-78
2023/06/21 01:45:42;;;;;;;1999.90;999.90;;;18.80;99.90;;;;;;5015083;28;20039;-77
2023/06/21 01:48:08;;;;;;;1999.90;999.90;;;18.70;99.90;;;;;;5015161;28;20034;-78
2023/06/21 01:50:35;;;;;;;1999.90;999.90;;;18.70;99.90;;;;;;5015071;28;20525;-77
2023/06/21 01:53:03;;;;;;;1999.90;999.90;;;18.60;99.90;;;;;;5014977;28;20033;-78
2023/06/21 01:55:29;;;;;;;1999.90;999.90;;;18.60;99.90;;;;;;5015028;28;20066;-78
2023/06/21 01:57:56;;;;;;;1999.90;999.90;;;18.60;99.90;;;;;;5014851;28;20081;-78
2023/06/21 02:00:22;;;;;;;1999.90;999.90;;;18.50;99.90;;;;;;5015108;28;20114;-78
2023/06/21 02:02:52;;;;;;;1999.90;999.90;;;18.50;99.90;;;;;;5014789;28;20109;-78
2023/06/21 02:05:19;;;;;;;1999.90;999.90;;;18.50;99.90;;;;;;5015020;28;20475;-78
2023/06/21 02:07:46;;;;;;;1999.90;999.90;;;18.40;99.90;;;;;;5014480;28;20556;-78
2023/06/21 02:10:13;;;;;;;1999.90;999.90;;;18.40;99.90;;;;;;5013799;28;20050;-77
2023/06/21 02:12:40;;;;;;;1999.90;999.90;;;18.40;99.90;;;;;;5029636;28;20030;-77
2023/06/21 02:15:07;;;;;;;1999.90;999.90;;;18.40;99.90;;;;;;5014847;28;20117;-78
2023/06/21 02:17:32;;;;;;;1999.90;999.90;;;18.40;99.90;;;;;;5012878;28;20034;-78
2023/06/21 02:19:58;;;;;;;1999.90;999.90;;;18.30;99.90;;;;;;5014832;28;20038;-78
2023/06/21 02:22:23;;;;;;;1999.90;999.90;;;18.30;99.90;;;;;;5014349;28;20034;-77
2023/06/21 02:24:49;;;;;;;1999.90;999.90;;;18.30;99.90;;;;;;5014688;28;20042;-77
2023/06/21 02:27:14;;;;;;;1999.90;999.90;;;18.30;99.90;;;;;;5014640;28;20034;-78
2023/06/21 02:29:40;;;;;;;1999.90;999.90;;;18.30;99.90;;;;;;5014416;28;20496;-77
2023/06/21 02:32:06;;;;;;;1999.90;999.90;;;18.30;99.90;;;;;;5014524;28;20049;-78
2023/06/21 02:34:31;;;;;;;1999.90;999.90;;;18.30;99.90;;;;;;5014683;28;20096;-78
2023/06/21 02:36:57;;;;;;;1999.90;999.90;;;18.30;99.90;;;;;;5014369;28;20480;-78
2023/06/21 02:39:24;;;;;;;1999.90;999.90;;;18.30;99.90;;;;;;5014370;28;20782;-77
2023/06/21 02:41:51;;;;;;;1999.90;999.90;;;18.30;99.90;;;;;;5014326;28;20065;-77
2023/06/21 02:44:17;;;;;;;1999.90;999.90;;;18.30;99.90;;;;;;5014533;28;20556;-77
2023/06/21 02:46:42;;;;;;;1999.90;999.90;;;18.30;99.90;;;;;;5014226;28;20038;-77
2023/06/21 02:49:08;;;;;;;1999.90;999.90;;;18.30;99.90;;;;;;5014470;28;20060;-78
2023/06/21 02:51:33;;;;;;;1999.90;999.90;;;18.20;99.90;;;;;;5014112;28;20034;-77
2023/06/21 02:53:59;;;;;;;1999.90;999.90;;;18.20;99.90;;;;;;5013999;28;20046;-77
2023/06/21 02:56:24;;;;;;;1999.90;999.90;;;18.20;99.90;;;;;;5014253;28;20065;-77
2023/06/21 02:58:50;;;;;;;1999.90;999.90;;;18.20;99.90;;;;;;5014277;28;20041;-77
2023/06/21 03:01:16;;;;;;;1999.90;999.90;;;18.10;99.90;;;;;;5014110;28;20484;-77
2023/06/21 03:03:44;;;;;;;1999.90;999.90;;;18.20;99.90;;;;;;5014663;28;20038;-77
2023/06/21 03:06:11;;;;;;;1999.90;999.90;;;18.20;99.90;;;;;;5014239;28;20113;-77
2023/06/21 03:08:38;;;;;;;1999.90;999.90;;;18.20;99.90;;;;;;5014328;28;20027;-77
2023/06/21 03:11:08;;;;;;;1999.90;999.90;;;18.30;99.90;;;;;;5013917;28;20065;-77
2023/06/21 03:13:35;;;;;;;1999.90;999.90;;;18.30;99.90;;;;;;5014821;28;20030;-77
2023/06/21 03:16:02;;;;;;;1999.90;999.90;;;18.20;99.90;;;;;;5014316;28;20059;-78
2023/06/21 03:18:27;;;;;;;1999.90;999.90;;;18.20;99.90;;;;;;5014061;28;20031;-77
2023/06/21 03:20:53;;;;;;;1999.90;999.90;;;18.20;99.90;;;;;;5013997;28;20038;-77
2023/06/21 03:23:18;;;;;;;1999.90;999.90;;;18.20;99.90;;;;;;5015301;28;22552;-77
2023/06/21 03:25:44;;;;;;;1999.90;999.90;;;18.20;99.90;;;;;;5017110;28;20031;-77
2023/06/21 03:28:09;;;;;;;1999.90;999.90;;;18.30;99.90;;;;;;5017251;28;20030;-77
2023/06/21 03:30:35;;;;;;;1999.90;999.90;;;18.30;99.90;;;;;;5015645;28;20049;-78
2023/06/21 03:33:01;;;;;;;1999.90;999.90;;;18.40;99.90;;;;;;5016950;28;20393;-78
2023/06/21 03:35:29;;;;;;;1999.90;999.90;;;18.40;99.90;;;;;;5017371;28;20121;-77
2023/06/21 03:37:54;;;;;;;1999.90;999.90;;;18.50;99.90;;;;;;5017005;28;20022;-78
2023/06/21 03:40:20;;;;;;;1999.90;999.90;;;18.60;99.90;;;;;;5017262;28;20035;-78
2023/06/21 03:42:46;;;;;;;1999.90;999.90;;;18.70;99.90;;;;;;5016892;28;20065;-78
2023/06/21 03:45:12;;;;;;;1999.90;999.90;;;18.70;99.90;;;;;;5017142;28;20069;-77
2023/06/21 03:47:39;;;;;;;1999.90;999.90;;;18.80;99.90;;;;;;5017004;28;20037;-78
2023/06/21 03:50:06;;;;;;;1999.90;999.90;;;18.80;99.90;;;;;;5016959;28;20039;-77
2023/06/21 03:52:32;;;;;;;1999.90;999.90;;;18.80;99.90;;;;;;5015243;28;20031;-77
2023/06/21 03:54:58;;;;;;;1999.90;999.90;;;18.90;99.90;;;;;;5016940;28;20043;-77
2023/06/21 03:57:23;;;;;;;1999.90;999.90;;;19.00;99.90;;;;;;5015319;28;20116;-78
2023/06/21 03:59:49;;;;;;;1999.90;999.90;;;19.00;99.90;;;;;;5016903;28;20034;-77
2023/06/21 04:02:15;;;;;;;1999.90;999.90;;;19.00;99.90;;;;;;5016609;28;20113;-77
2023/06/21 04:04:41;;;;;;;1999.90;999.90;;;19.20;99.90;;;;;;5015477;28;20062;-78
2023/06/21 04:07:07;;;;;;;1999.90;999.90;;;19.30;99.90;;;;;;5016219;28;20109;-78
2023/06/21 04:09:33;;;;;;;1999.90;999.90;;;19.10;99.90;;;;;;5016720;28;20097;-78
2023/06/21 04:11:58;;;;;;;1999.90;999.90;;;19.00;99.90;;;;;;5016277;28;20457;-78
2023/06/21 04:14:24;;;;;;;1999.90;999.90;;;19.00;99.90;;;;;;5016813;28;20065;-78
2023/06/21 04:16:50;;;;;;;1999.90;999.90;;;18.90;99.90;;;;;;5016623;28;20081;-77
2023/06/21 04:19:15;;;;;;;1999.90;999.90;;;18.80;99.90;;;;;;5016704;28;20035;-78
2023/06/21 04:21:41;;;;;;;1999.90;999.90;;;18.80;99.90;;;;;;5016292;28;20086;-78
2023/06/21 04:24:06;;;;;;;1999.90;999.90;;;18.80;99.90;;;;;;5016697;28;20508;-78
2023/06/21 04:26:32;;;;;;;1999.90;999.90;;;18.80;99.90;;;;;;5016424;28;20496;-78
2023/06/21 04:29:00;;;;;;;1999.90;999.90;;;18.80;99.90;;;;;;5016312;28;20506;-78
2023/06/21 04:31:27;;;;;;;1999.90;999.90;;;18.80;99.90;;;;;;5016037;28;20088;-78
2023/06/21 04:33:53;;;;;;;1999.90;999.90;;;18.90;99.90;;;;;;5015425;28;20034;-78
2023/06/21 04:36:19;;;;;;;1999.90;999.90;;;18.90;99.90;;;;;;5014729;28;20037;-78
2023/06/21 04:38:49;;;;;;;1999.90;999.90;;;18.90;99.90;;;;;;5016517;28;20038;-78
2023/06/21 04:41:18;;;;;;;1999.90;999.90;;;19.00;99.90;;;;;;5015634;28;20035;-79
2023/06/21 04:43:43;;;;;;;1999.90;999.90;;;19.00;99.90;;;;;;5015990;28;20041;-78
2023/06/21 04:46:09;;;;;;;1999.90;999.90;;;19.10;99.90;;;;;;5016094;28;20034;-78
2023/06/21 04:48:36;;;;;;;1999.90;999.90;;;19.20;99.90;;;;;;5016397;28;20397;-78
2023/06/21 04:51:02;;;;;;;1999.90;999.90;;;19.10;99.90;;;;;;5015834;28;20174;-78
2023/06/21 04:53:30;;;;;;;1999.90;999.90;;;19.00;99.90;;;;;;5016198;28;20616;-78
2023/06/21 04:55:57;;;;;;;1999.90;999.90;;;19.10;99.90;;;;;;5015979;28;20048;-78
2023/06/21 04:58:26;;;;;;;1999.90;999.90;;;19.20;99.90;;;;;;5014616;28;20125;-78
2023/06/21 05:00:52;;;;;;;1999.90;999.90;;;19.10;99.90;;;;;;5015832;28;20038;-78
2023/06/21 05:03:17;;;;;;;1999.90;999.90;;;19.00;99.90;;;;;;5014567;28;20393;-78
2023/06/21 05:05:43;;;;;;;1999.90;999.90;;;19.00;99.90;;;;;;5016068;28;20034;-78
2023/06/21 05:08:08;;;;;;;1999.90;999.90;;;19.00;99.90;;;;;;5015716;28;20484;-78
2023/06/21 05:10:34;;;;;;;1999.90;999.90;;;19.00;99.90;;;;;;5015878;28;20046;-78
2023/06/21 05:13:00;;;;;;;1999.90;999.90;;;18.90;99.90;;;;;;5013935;28;20576;-78
2023/06/21 05:15:26;;;;;;;1999.90;999.90;;;18.80;99.90;;;;;;5015658;28;20109;-79
2023/06/21 05:17:52;;;;;;;1999.90;999.90;;;18.80;99.90;;;;;;5015542;28;20030;-78
2023/06/21 05:20:21;;;;;;;1999.90;999.90;;;18.80;99.90;;;;;;5014192;28;20038;-78
2023/06/21 05:22:47;;;;;;;1999.90;999.90;;;18.70;99.90;;;;;;5015427;28;20034;-79
2023/06/21 05:25:12;;;;;;;1999.90;999.90;;;18.60;99.90;;;;;;5014501;28;20038;-79
2023/06/21 05:27:38;;;;;;;1999.90;999.90;;;18.60;99.90;;;;;;5015415;28;20037;-79
2023/06/21 05:30:04;;;;;;;1999.90;999.90;;;18.60;99.90;;;;;;5015555;28;20043;-79
2023/06/21 05:32:30;;;;;;;1999.90;999.90;;;18.50;99.90;;;;;;5015299;28;20113;-79
2023/06/21 05:34:56;;;;;;;1999.90;999.90;;;18.40;99.90;;;;;;5014079;28;20038;-79
2023/06/21 05:37:22;;;;;;;1999.90;999.90;;;18.30;99.90;;;;;;5014859;28;20050;-79
2023/06/21 05:39:47;;;;;;;1999.90;999.90;;;18.40;99.90;;;;;;5013976;28;20073;-78
2023/06/21 05:42:13;;;;;;;1999.90;999.90;;;18.40;99.90;;;;;;5014902;28;20045;-78
2023/06/21 05:44:39;;;;;;;1999.90;999.90;;;18.40;99.90;;;;;;5015391;28;20069;-79
2023/06/21 05:47:05;;;;;;;1999.90;999.90;;;18.40;99.90;;;;;;5015162;28;20523;-79
2023/06/21 05:49:30;;;;;;;1999.90;999.90;;;18.50;99.90;;;;;;5015180;28;20065;-78
2023/06/21 05:51:56;;;;;;;1999.90;999.90;;;18.50;99.90;;;;;;5013404;28;20037;-78
2023/06/21 05:54:21;;;;;;;1999.90;999.90;;;18.40;99.90;;;;;;5015272;28;20085;-79
2023/06/21 05:56:49;;;;;;;1999.90;999.90;;;18.50;99.90;;;;;;5015008;28;20031;-79
2023/06/21 05:59:15;;;;;;;1999.90;999.90;;;18.50;99.90;;;;;;5015066;28;20377;-78
2023/06/21 06:01:40;;;;;;;1999.90;999.90;;;18.50;99.90;;;;;;5015025;28;20061;-78
2023/06/21 06:04:06;;;;;;;1999.90;999.90;;;18.60;99.90;;;;;;5013513;28;20034;-78
2023/06/21 06:06:39;;;;;;;1999.90;999.90;;;18.70;99.90;;;;;;5039142;22;20559;-77
2023/06/21 06:09:07;;;;;;;1999.90;999.90;;;18.60;99.90;;;;;;5036047;28;20041;-75
2023/06/21 06:11:33;;;;;;;1999.90;999.90;;;18.70;99.90;;;;;;5034836;28;20038;-76
2023/06/21 06:13:59;;;;;;;1999.90;999.90;;;18.60;99.90;;;;;;5034090;28;20390;-76
2023/06/21 06:16:24;;;;;;;1999.90;999.90;;;18.50;99.90;;;;;;5034275;28;20105;-76
2023/06/21 06:18:50;;;;;;;1999.90;999.90;;;18.50;99.90;;;;;;5034369;28;20136;-75
2023/06/21 06:21:21;;;;;;;1999.90;999.90;;;18.50;99.90;;;;;;5049941;28;20038;-76
2023/06/21 06:23:52;;;;;;;1999.90;999.90;;;18.50;99.90;;;;;;5035172;28;20891;-76
2023/06/21 06:26:23;;;;;;;1999.90;999.90;;;18.70;99.90;;;;;;5033274;28;20045;-76
2023/06/21 06:28:50;;;;;;;1999.90;999.90;;;18.80;99.90;;;;;;5033186;28;20034;-76
2023/06/21 06:31:19;;;;;;;1999.90;999.90;;;18.70;99.90;;;;;;5049671;28;20119;-75
2023/06/21 06:33:44;;;;;;;1999.90;999.90;;;18.90;99.90;;;;;;5032825;28;20034;-76
2023/06/21 06:36:12;;;;;;;1999.90;999.90;;;19.10;99.90;;;;;;5049970;28;20033;-77
2023/06/21 06:38:38;;;;;;;1999.90;999.90;;;19.10;99.90;;;;;;5032860;28;20044;-76
2023/06/21 06:41:04;;;;;;;1999.90;999.90;;;19.10;99.90;;;;;;5032742;28;20037;-75
2023/06/21 06:43:31;;;;;;;1999.90;999.90;;;19.20;99.90;;;;;;5034649;28;20033;-76
2023/06/21 06:45:57;;;;;;;1999.90;999.90;;;19.20;99.90;;;;;;5032676;28;20521;-77
2023/06/21 06:48:22;;;;;;;1999.90;999.90;;;19.40;99.90;;;;;;5034585;28;20034;-75
2023/06/21 06:50:48;;;;;;;1999.90;999.90;;;19.30;99.90;;;;;;5033072;28;20038;-75
2023/06/21 06:53:14;;;;;;;1999.90;999.90;;;19.30;99.90;;;;;;5034630;28;20045;-75
2023/06/21 06:55:39;;;;;;;1999.90;999.90;;;19.40;99.90;;;;;;5034714;28;20034;-76
2023/06/21 06:58:05;;;;;;;1999.90;999.90;;;19.40;99.90;;;;;;5052123;28;20038;-75
2023/06/21 07:00:30;;;;;;;1999.90;999.90;;;19.40;99.90;;;;;;5037864;28;20038;-75
2023/06/21 07:02:57;;;;;;;1999.90;999.90;;;19.50;99.90;;;;;;5036043;28;20029;-76
2023/06/21 07:05:23;;;;;;;1999.90;999.90;;;19.60;99.90;;;;;;5040053;28;20030;-76
2023/06/21 07:07:50;;;;;;;1999.90;999.90;;;19.80;99.90;;;;;;5037368;28;20037;-75
2023/06/21 07:10:16;;;;;;;1999.90;999.90;;;19.90;99.90;;;;;;5037490;28;20038;-75
2023/06/21 07:12:42;;;;;;;1999.90;999.90;;;20.20;99.90;;;;;;5035896;28;20030;-75
2023/06/21 07:15:08;;;;;;;1999.90;999.90;;;20.30;99.90;;;;;;5037751;28;20494;-75
2023/06/21 07:17:33;;;;;;;1999.90;999.90;;;20.60;99.90;;;;;;5037362;28;20038;-76
2023/06/21 07:19:59;;;;;;;1999.90;999.90;;;20.60;99.90;;;;;;5052556;28;20395;-76
2023/06/21 07:22:25;;;;;;;1999.90;999.90;;;21.00;99.90;;;;;;5052251;28;20181;-75
2023/06/21 07:24:50;;;;;;;1999.90;999.90;;;21.40;99.90;;;;;;5037197;28;20048;-75
2023/06/21 07:27:16;;;;;;;1999.90;999.90;;;21.90;99.90;;;;;;5036967;28;20037;-76
2023/06/21 07:29:41;;;;;;;1999.90;999.90;;;21.80;99.90;;;;;;5051983;28;20038;-76
2023/06/21 07:32:07;;;;;;;1999.90;999.90;;;21.80;99.90;;;;;;5037244;28;20029;-76
2023/06/21 07:34:32;;;;;;;1999.90;999.90;;;21.60;99.90;;;;;;5037592;28;20069;-76
2023/06/21 07:36:58;;;;;;;1999.90;999.90;;;21.90;99.90;;;;;;5052028;28;20104;-76
2023/06/21 07:39:24;;;;;;;1999.90;999.90;;;22.40;99.90;;;;;;5036927;28;20120;-76
2023/06/21 07:41:49;;;;;;;1999.90;999.90;;;22.50;99.90;;;;;;5035367;28;20441;-76
2023/06/21 07:44:17;;;;;;;1999.90;999.90;;;22.60;99.90;;;;;;5036861;28;20045;-76
2023/06/21 07:46:43;;;;;;;1999.90;999.90;;;22.60;99.90;;;;;;5051902;28;20041;-76
2023/06/21 07:49:08;;;;;;;1999.90;999.90;;;22.60;99.90;;;;;;5036889;28;20410;-76
2023/06/21 07:51:34;;;;;;;1999.90;999.90;;;22.70;99.90;;;;;;5036671;28;20391;-76
2023/06/21 07:53:59;;;;;;;1999.90;999.90;;;22.70;99.90;;;;;;5035686;28;20500;-77
2023/06/21 07:56:25;;;;;;;1999.90;999.90;;;22.50;99.90;;;;;;5036657;28;20218;-76
2023/06/21 07:58:50;;;;;;;1999.90;999.90;;;22.50;99.90;;;;;;5036954;28;20030;-77
2023/06/21 08:01:16;;;;;;;1999.90;999.90;;;22.50;99.90;;;;;;5036642;28;20108;-77
2023/06/21 08:03:42;;;;;;;1999.90;999.90;;;22.60;99.90;;;;;;5036979;28;20045;-77
2023/06/21 08:06:07;;;;;;;1999.90;999.90;;;22.60;99.90;;;;;;5036881;28;20062;-76
2023/06/21 08:08:33;;;;;;;1999.90;999.90;;;22.50;99.90;;;;;;5034983;28;20076;-77
2023/06/21 08:10:59;;;;;;;1999.90;999.90;;;22.80;99.90;;;;;;5036692;28;20517;-77
2023/06/21 08:13:26;;;;;;;1999.90;999.90;;;22.70;99.90;;;;;;5035204;28;20038;-77
2023/06/21 08:15:52;;;;;;;1999.90;999.90;;;22.90;99.90;;;;;;5036566;28;20526;-77
2023/06/21 08:18:17;;;;;;;1999.90;999.90;;;22.90;99.90;;;;;;5036324;28;20045;-78
2023/06/21 08:20:43;;;;;;;1999.90;999.90;;;23.10;99.90;;;;;;5036926;28;20463;-77
2023/06/21 08:23:08;;;;;;;1999.90;999.90;;;23.20;99.90;;;;;;5051552;28;20022;-77
2023/06/21 08:25:35;;;;;;;1999.90;999.90;;;23.10;99.90;;;;;;5036480;28;20173;-77
2023/06/21 08:28:01;;;;;;;1999.90;999.90;;;22.90;99.90;;;;;;5036386;28;20117;-77
2023/06/21 08:30:27;;;;;;;1999.90;999.90;;;22.90;99.90;;;;;;5036345;28;20068;-77
2023/06/21 08:32:53;;;;;;;1999.90;999.90;;;23.30;99.90;;;;;;5036164;28;20531;-77
2023/06/21 08:35:19;;;;;;;1999.90;999.90;;;23.80;99.90;;;;;;5052691;28;20125;-77
2023/06/21 08:37:56;;;;;;;1999.90;999.90;;;24.00;99.90;;;;;;5035817;28;20053;-78
2023/06/21 08:40:33;;;;;;;1999.90;999.90;;;24.10;99.90;;;;;;5036116;28;20053;-77
2023/06/21 08:43:00;;;;;;;1999.90;999.90;;;24.30;99.90;;;;;;5036053;28;20882;-77
2023/06/21 08:45:26;;;;;;;1999.90;999.90;;;24.90;99.90;;;;;;5036007;28;20045;-77
2023/06/21 08:47:52;;;;;;;1999.90;999.90;;;25.50;99.90;;;;;;5037259;28;20458;-77
2023/06/21 08:50:22;;;;;;;1999.90;999.90;;;25.60;99.90;;;;;;5035972;28;20033;-77
2023/06/21 08:52:51;;;;;;;1999.90;999.90;;;25.90;99.90;;;;;;5035604;28;20041;-77
2023/06/21 08:55:20;;;;;;;1999.90;999.90;;;25.70;99.90;;;;;;5035751;28;20499;-77
2023/06/21 08:57:52;;;;;;;1999.90;999.90;;;25.60;99.90;;;;;;5035503;28;20403;-77
2023/06/21 09:00:22;;;;;;;1999.90;999.90;;;25.30;99.90;;;;;;5035641;28;20503;-77
2023/06/21 09:03:06;;;;;;;1999.90;999.90;;;25.10;99.90;;;;;;5035205;28;20172;-77
2023/06/21 09:06:03;;;;;;;1999.90;999.90;;;25.10;99.90;;;;;;5034269;28;20033;-76
2023/06/21 09:08:31;;;;;;;1999.90;999.90;;;25.50;99.90;;;;;;5035557;28;20033;-78
2023/06/21 09:10:57;;;;;;;1999.90;999.90;;;25.70;99.90;;;;;;5050489;28;20045;-77
2023/06/21 09:13:27;;;;;;;1999.90;999.90;;;25.80;99.90;;;;;;5035649;28;20034;-77
2023/06/21 09:15:55;;;;;;;1999.90;999.90;;;25.70;99.90;;;;;;5035787;28;20089;-77
2023/06/21 09:18:22;;;;;;;1999.90;999.90;;;25.50;99.90;;;;;;5035275;28;20061;-76
2023/06/21 09:20:49;;;;;;;1999.90;999.90;;;25.10;99.90;;;;;;5034977;28;20042;-77
2023/06/21 09:23:15;;;;;;;1999.90;999.90;;;24.90;99.90;;;;;;5036461;28;20041;-78
2023/06/21 09:25:44;;;;;;;1999.90;999.90;;;24.60;99.90;;;;;;5037788;28;20731;-78
2023/06/21 09:28:10;;;;;;;1999.90;999.90;;;24.50;99.90;;;;;;5036754;28;20482;-78
2023/06/21 09:30:36;;;;;;;1999.90;999.90;;;24.30;99.90;;;;;;5036894;28;20042;-78
2023/06/21 09:33:02;;;;;;;1999.90;999.90;;;24.00;99.90;;;;;;5036468;28;20388;-77
2023/06/21 09:35:27;;;;;;;1999.90;999.90;;;23.80;99.90;;;;;;5034134;28;20045;-77
2023/06/21 09:37:53;;;;;;;1999.90;999.90;;;23.70;99.90;;;;;;5035061;28;20038;-77
2023/06/21 09:40:19;;;;;;;1999.90;999.90;;;23.60;99.90;;;;;;5035126;28;20491;-77
2023/06/21 09:42:45;;;;;;;1999.90;999.90;;;23.40;99.90;;;;;;5033529;28;20120;-77
2023/06/21 09:45:20;;;;;;;1999.90;999.90;;;23.20;99.90;;;;;;5035025;28;20042;-77
2023/06/21 09:47:46;;;;;;;1999.90;999.90;;;22.90;99.90;;;;;;5035000;28;20085;-78
2023/06/21 09:50:12;;;;;;;1999.90;999.90;;;22.80;99.90;;;;;;5033662;28;20526;-77
2023/06/21 09:52:43;;;;;;;1999.90;999.90;;;22.50;99.90;;;;;;5033461;28;20029;-77
2023/06/21 09:55:13;;;;;;;1999.90;999.90;;;22.30;99.90;;;;;;5033377;28;20037;-76
2023/06/21 09:57:39;;;;;;;1999.90;999.90;;;22.10;99.90;;;;;;5049955;28;20140;-77
2023/06/21 10:00:06;;;;;;;1999.90;999.90;;;21.90;99.90;;;;;;5035132;28;20121;-77
2023/06/21 10:02:39;;;;;;;1999.90;999.90;;;21.80;99.90;;;;;;5034662;28;20029;-76
2023/06/21 10:05:05;;;;;;;1999.90;999.90;;;21.60;99.90;;;;;;5050088;28;20034;-76
2023/06/21 10:07:30;;;;;;;1999.90;999.90;;;21.40;99.90;;;;;;5034510;28;20517;-76
2023/06/21 10:09:56;;;;;;;1999.90;999.90;;;21.20;99.90;;;;;;5034992;28;20042;-76
2023/06/21 10:12:22;;;;;;;1999.90;999.90;;;21.10;99.90;;;;;;5032846;28;20041;-76
2023/06/21 10:14:50;;;;;;;1999.90;999.90;;;20.90;99.90;;;;;;5033280;28;20124;-76
2023/06/21 10:17:17;;;;;;;1999.90;999.90;;;20.60;99.90;;;;;;5034453;28;20037;-77
2023/06/21 10:19:44;;;;;;;1999.90;999.90;;;20.50;99.90;;;;;;5034710;28;20081;-76
2023/06/21 10:22:11;;;;;;;1999.90;999.90;;;20.30;99.90;;;;;;5034340;28;20104;-76
2023/06/21 10:24:50;;;;;;;1999.90;999.90;;;20.30;99.90;;;;;;5034600;28;20076;-76
2023/06/21 10:27:17;;;;;;;1999.90;999.90;;;20.20;99.90;;;;;;5049734;28;20030;-75
2023/06/21 10:29:44;;;;;;;1999.90;999.90;;;20.20;99.90;;;;;;5034741;28;20022;-76
2023/06/21 10:32:11;;;;;;;1999.90;999.90;;;20.20;99.90;;;;;;5037578;28;20022;-75
2023/06/21 10:34:45;;;;;;;1999.90;999.90;;;20.30;99.90;;;;;;5049865;28;20026;-75
2023/06/21 10:37:22;;;;;;;1999.90;999.90;;;20.20;99.90;;;;;;5053821;28;20026;-75
2023/06/21 10:39:52;;;;;;;1999.90;999.90;;;20.20;99.90;;;;;;5040885;28;20026;-75
2023/06/21 10:42:19;;;;;;;1999.90;999.90;;;20.20;99.90;;;;;;5054006;28;20435;-76
2023/06/21 10:44:45;;;;;;;1999.90;999.90;;;20.20;99.90;;;;;;5038289;28;20088;-75
2023/06/21 10:47:13;;;;;;;1999.90;999.90;;;20.30;99.90;;;;;;5053165;28;20106;-75
2023/06/21 10:49:40;;;;;;;1999.90;999.90;;;20.20;99.90;;;;;;5036423;28;20037;-76
2023/06/21 10:52:06;;;;;;;1999.90;999.90;;;20.20;99.90;;;;;;5037238;28;20061;-76
2023/06/21 10:54:32;;;;;;;1999.90;999.90;;;20.10;99.90;;;;;;5037910;28;20041;-76
2023/06/21 10:56:58;;;;;;;1999.90;999.90;;;20.10;99.90;;;;;;5037492;28;20040;-76
2023/06/21 10:59:26;;;;;;;1999.90;999.90;;;20.10;99.90;;;;;;5037660;28;20048;-76
2023/06/21 11:01:52;;;;;;;1999.90;999.90;;;20.20;99.90;;;;;;5037785;28;20054;-76
2023/06/21 11:04:18;;;;;;;1999.90;999.90;;;20.20;99.90;;;;;;5037976;28;20038;-76
2023/06/21 11:06:44;;;;;;;1999.90;999.90;;;20.20;99.90;;;;;;5037231;28;20038;-76
2023/06/21 11:09:16;;;;;;;1999.90;999.90;;;20.30;99.90;;;;;;5037943;28;20057;-76
2023/06/21 11:11:50;;;;;;;1999.90;999.90;;;20.20;99.90;;;;;;5037174;28;20034;-76
2023/06/21 11:14:21;;;;;;;1999.90;999.90;;;20.30;99.90;;;;;;5037574;28;20551;-76
2023/06/21 11:16:46;;;;;;;1999.90;999.90;;;20.60;99.90;;;;;;5036298;28;20037;-76
2023/06/21 11:19:14;;;;;;;1999.90;999.90;;;20.70;99.90;;;;;;5037716;28;20049;-76
2023/06/21 11:21:44;;;;;;;1999.90;999.90;;;20.80;99.90;;;;;;5052593;28;20034;-76
2023/06/21 11:24:11;;;;;;;1999.90;999.90;;;21.00;99.90;;;;;;5038430;28;20030;-76
2023/06/21 11:26:58;;;;;;;1999.90;999.90;;;21.20;99.90;;;;;;5037094;28;20041;-77
2023/06/21 11:29:39;;;;;;;1999.90;999.90;;;21.40;99.90;;;;;;5038494;28;20034;-77
2023/06/21 11:32:11;;;;;;;1999.90;999.90;;;21.50;99.90;;;;;;5037559;28;20089;-77
2023/06/21 11:34:49;;;;;;;1999.90;999.90;;;21.50;99.90;;;;;;5036315;28;20440;-76
2023/06/21 11:37:34;;;;;;;1999.90;999.90;;;21.80;99.90;;;;;;5052497;28;20034;-77
2023/06/21 11:40:01;;;;;;;1999.90;999.90;;;22.30;99.90;;;;;;5037590;28;20109;-75
2023/06/21 11:42:31;;;;;;;1999.90;999.90;;;22.40;99.90;;;;;;5036605;28;20025;-76
2023/06/21 11:45:14;;;;;;;1999.90;999.90;;;22.70;99.90;;;;;;5037108;28;20030;-76
2023/06/21 11:47:58;;;;;;;1999.90;999.90;;;23.00;99.90;;;;;;5035420;28;20040;-76
2023/06/21 11:50:34;;;;;;;1999.90;999.90;;;23.60;99.90;;;;;;5037140;28;20038;-76
2023/06/21 11:53:18;;;;;;;1999.90;999.90;;;24.00;99.90;;;;;;5036689;28;20140;-77
2023/06/21 11:55:44;;;;;;;1999.90;999.90;;;24.40;99.90;;;;;;5037264;28;20061;-78
2023/06/21 11:58:10;;;;;;;1999.90;999.90;;;24.40;99.90;;;;;;5036692;28;20109;-77
2023/06/21 12:00:36;;;;;;;1999.90;999.90;;;24.50;99.90;;;;;;5037130;28;20101;-77